Portada
METAR-TAF:

METAR-TAF

Aeroports :

Puerto San José, Guatemala

latitud: 13-55N, longitud: 090-49W, altitud: 2 m

Observació

L'informe es va fer fa 19 minuts, a les 13:00 UTC
Vent calma
Temperatura 20°C
Humitat 94%
Pressió 1010 hPa
Visibilitat 10 km o més
sense núvols per sota de 1500 mi sense presència de cumulonimbus.

METAR: MGSJ 181300Z 00000KT CAVOK 20/19 Q1010 A2983

Hora: 07:19 (13:19 UTC)

Pronòstic

L'informe es va fer fa 2 hores i 19 minuts, a les 11:00 UTC
Pronòstic vàlid del 18 a les 12 UTC al 19 a les 12 UTC
Vent kt del Nord
Visibilitat: 7000 m
Evolucionant progressivament
l' 18 a les 14 UTC al 18 a les 16 UTC
Vent 8 kt del Sud
Evolucionant progressivament
l' 18 a les 20 UTC al 18 a les 22 UTC
Vent 10 kt del Sud-Oest
Escasses núvols a una alçada de 2000 ft
A partir de les 19 a les 0200 UTC
Vent kt del Nord
Visibilitat: 8000 m

TAF: MGSJ 181100Z 1812/1912 00000KT 7000 NSC TX35/1820Z TN22/1812Z BECMG 1814/1816 18008KT BECMG 1820/1822 22010KT FEW020 FM190200 00000KT 8000 NSC

Observacions i pronòstics meteorològics de més de 4000 aeroports (METAR i TAF).

Les estacions disponibles són els punts grocs i vermells al mapa.

Posi el ratolí al punt desitjat per veure el nom de l'estació.

Feu clic per veure les observacions i els pronòstics meteorològics.

Per canviar el mapa: feu clic els botons verds amb una creu de color negre per apropar; al botó verd amb un guió per allunyar la imatge; o en les fletxes verdes per a mapes adjacents.


METAR-TAF: